• Join FlightAware (Why Join?)
  • Login
  • US Flag 
06:23PM EDT


 

Airport Tracker/Info


-or-


 

Live Flight TrackerFlight Track Log ✈ EJA396 ✈ 30-Apr-2013 ✈ KUDD - 6S5

Flight Track Log - Related Links

Times and Time Zones

All times are in EDT time to prevent confusion due to time zone crossing. See the EJA396 flight status page for this flight to view local times or setup timezone preferences in your user account.

Time Position Orientation Groundspeed Altitude Reporting Facility
EDT Latitude Longitude Course Direction KTS MPH feet Rate Location/Type
12:31PM 33.8167 -116.3333 331° Northwest 222 255 4,200  Level Southern California TRACON
12:32PM 33.8667 -116.3667 331° Northwest 238 274 7,300 3,000 Climbing Southern California TRACON
12:32PM 33.8997 -116.3869 333° Northwest 250 288 8,700 2,880 Climbing Los Angeles Center
12:33PM 33.9644 -116.4283 332° Northwest 257 296 11,800 1,980 Climbing Los Angeles Center
12:34PM 34.0447 -116.4817 331° Northwest 306 352 12,900 1,500 Climbing Los Angeles Center
12:35PM 34.1356 -116.5353 334° Northwest 357 411 15,000 2,400 Climbing Los Angeles Center
12:36PM 34.2339 -116.5708 343° North 367 422 17,900 3,060 Climbing Los Angeles Center
12:37PM 34.3156 -116.6758 313° West 369 425 21,400 2,700 Climbing Los Angeles Center
12:38PM 34.3586 -116.7875 295° West 371 427 23,500 1,740 Climbing Los Angeles Center
12:39PM 34.4111 -116.9067 298° West 392 451 25,000 1,440 Climbing Los Angeles Center
12:40PM 34.4625 -117.0356 296° West 417 480 26,500 1,440 Climbing Los Angeles Center
12:41PM 34.5153 -117.1650 296° West 428 493 28,000 1,440 Climbing Los Angeles Center
12:42PM 34.5681 -117.2978 296° West 437 503 29,500 1,440 Climbing Los Angeles Center
12:44PM 34.6311 -117.4561 296° West 437 503 31,000 1,080 Climbing Los Angeles Center
12:45PM 34.6761 -117.5675 296° West 443 510 31,800 780 Climbing Los Angeles Center
12:46PM 34.6831 -117.7517 273° West 461 531 32,700 960 Climbing Los Angeles Center
12:47PM 34.6636 -117.8981 261° West 460 529 33,900 1,200 Climbing Los Angeles Center
12:48PM 34.6833 -118.0767 278° West 451 519 35,300 1,200 Climbing Los Angeles Center
12:49PM 34.7356 -118.2114 295° West 445 512 36,500 1,140 Climbing Los Angeles Center
12:50PM 34.8122 -118.3242 310° West 436 502 37,700 1,140 Climbing Los Angeles Center
12:51PM 34.8878 -118.4339 310° West 429 494 38,900 1,080 Climbing Los Angeles Center
12:52PM 34.9775 -118.5531 313° West 419 482 40,000 480 Climbing Los Angeles Center
12:53PM 35.0775 -118.6231 330° Northwest 415 478 40,000  Level Los Angeles Center
12:54PM 35.1928 -118.6550 347° North 421 484 40,000  Level Los Angeles Center
12:55PM 35.3092 -118.6803 350° North 424 488 40,000  Level Los Angeles Center
12:56PM 35.4250 -118.7069 349° North 425 489 40,000  Level Los Angeles Center
12:57PM 35.5664 -118.7364 350° North 428 493 40,000  Level Los Angeles Center
12:58PM 35.6597 -118.7561 350° North 426 490 40,000  Level Oakland Center
12:59PM 35.7742 -118.7822 350° North 423 487 40,000  Level Oakland Center
01:00PM 35.8889 -118.8072 350° North 420 483 40,000  Level Oakland Center
01:01PM 36.0019 -118.8336 349° North 417 480 40,000  Level Oakland Center
01:02PM 36.1161 -118.8589 350° North 417 480 40,000  Level Oakland Center
01:03PM 36.2303 -118.8839 350° North 417 480 40,000  Level Oakland Center
01:04PM 36.3467 -118.9108 349° North 423 487 40,000  Level Oakland Center
01:05PM 36.4617 -118.9364 350° North 422 486 40,000  Level Oakland Center
01:06PM 36.5981 -118.9675 350° North 417 480 40,000  Level Oakland Center
01:07PM 36.7114 -118.9931 350° North 415 478 40,000  Level Oakland Center
01:08PM 36.8247 -119.0189 350° North 415 478 40,000  Level Oakland Center
01:09PM 36.9392 -119.0444 350° North 419 482 40,000  Level Oakland Center
01:10PM 37.0539 -119.0703 350° North 419 482 40,000  Level Oakland Center
01:11PM 37.1697 -119.0975 349° North 426 490 40,000  Level Oakland Center
01:12PM 37.2856 -119.1233 350° North 423 487 40,000  Level Oakland Center
01:13PM 37.4006 -119.1517 349° North 424 488 40,000  Level Oakland Center
01:14PM 37.5172 -119.1775 350° North 425 489 40,000  Level Oakland Center
01:15PM 37.6583 -119.2097 350° North 420 483 40,000  Level Oakland Center
01:16PM 37.7739 -119.2361 350° North 420 483 40,000  Level Oakland Center
01:17PM 37.8881 -119.2619 350° North 418 481 40,000  Level Oakland Center
01:18PM 38.0011 -119.2894 349° North 413 475 40,000  Level Oakland Center
01:19PM 38.1150 -119.3161 350° North 415 478 40,000  Level Oakland Center
01:20PM 38.2219 -119.3425 349° North 415 478 40,000  Level Oakland Center
01:21PM 38.3336 -119.3678 350° North 411 473 40,000  Level Oakland Center
01:22PM 38.4683 -119.4003 349° North 408 470 40,000  Level Oakland Center
01:23PM 38.5833 -119.3953 North 414 476 40,000  Level Oakland Center
01:24PM 38.6997 -119.3542 15° North 429 494 40,000  Level Oakland Center
01:25PM 38.8144 -119.3111 16° North 430 495 40,000  Level Oakland Center
01:26PM 38.9308 -119.2697 15° North 431 496 40,000  Level Oakland Center
01:27PM 39.0469 -119.2275 16° North 432 497 40,000  Level Oakland Center
01:28PM 39.1628 -119.1853 16° North 431 496 40,000  Level Oakland Center
01:29PM 39.2778 -119.1447 15° North 428 493 40,000  Level Oakland Center
01:31PM 39.3928 -119.1008 16° North 426 490 40,000  Level Oakland Center
01:32PM 39.5081 -119.0592 16° North 425 489 40,000  Level Oakland Center
01:33PM 39.6233 -119.0139 17° North 427 491 40,000  Level Oakland Center
01:34PM 39.7356 -118.9425 26° Northeast 444 511 40,000  Level Oakland Center
01:35PM 39.8489 -118.8772 24° Northeast 442 509 40,000  Level Oakland Center
01:36PM 39.9822 -118.8311 15° North 414 476 40,000  Level Oakland Center
01:37PM 40.0958 -118.7897 16° North 419 482 40,000  Level Oakland Center
01:38PM 40.2086 -118.7508 15° North 419 482 40,000  Level Oakland Center
01:39PM 40.3200 -118.7100 16° North 416 479 40,000  Level Oakland Center
01:39PM 40.3817 -118.6886 15° North 418 481 40,000  Level Salt Lake Center
01:40PM 40.4886 -118.6517 15° North 417 480 40,000  Level Salt Lake Center
01:41PM 40.6119 -118.6056 16° North 414 476 40,000  Level Salt Lake Center
01:42PM 40.6550 -118.5917 14° North 414 476 40,000  Level Oakland Center
01:42PM 40.7178 -118.5678 16° North 411 473 40,000  Level Salt Lake Center
01:43PM 40.8242 -118.5300 15° North 411 473 40,000  Level Salt Lake Center
01:44PM 40.9467 -118.4847 16° North 408 470 40,000  Level Salt Lake Center
01:45PM 41.0506 -118.4478 15° North 405 466 40,000  Level Salt Lake Center
01:46PM 41.1731 -118.4022 16° North 407 468 40,000  Level Salt Lake Center
01:47PM 41.2764 -118.3631 16° North 404 465 40,000  Level Salt Lake Center
01:48PM 41.3800 -118.3261 15° North 402 463 40,000  Level Salt Lake Center
01:49PM 41.5022 -118.2814 15° North 405 466 40,000  Level Salt Lake Center
01:51PM 41.6061 -118.2411 16° North 404 465 40,000  Level Salt Lake Center
01:52PM 41.7264 -118.1961 16° North 401 461 40,000  Level Salt Lake Center
01:53PM 41.8281 -118.1597 15° North 396 456 40,000  Level Salt Lake Center
01:54PM 41.9478 -118.1147 16° North 398 458 40,000  Level Salt Lake Center
01:55PM 42.0508 -118.0742 16° North 401 461 40,000  Level Salt Lake Center
01:56PM 42.1556 -118.0350 15° North 407 468 40,000  Level Salt Lake Center
01:57PM 42.2756 -117.9842 17° North 413 475 40,000  Level Salt Lake Center
01:58PM 42.3831 -117.9453 15° North 413 475 40,000  Level Salt Lake Center
01:59PM 42.5103 -117.8964 16° North 422 486 40,000  Level Salt Lake Center
02:00PM 42.6192 -117.8425 20° North 435 501 40,000  Level Salt Lake Center
02:01PM 42.7367 -117.7342 34° Northeast 457 526 40,000  Level Salt Lake Center
02:02PM 42.8381 -117.6392 34° Northeast 461 531 40,000  Level Salt Lake Center
02:03PM 42.9556 -117.5261 35° Northeast 463 533 40,000  Level Salt Lake Center
02:04PM 43.0567 -117.4283 35° Northeast 465 535 40,000  Level Salt Lake Center
02:05PM 43.1756 -117.3156 35° Northeast 466 536 40,000  Level Salt Lake Center
02:06PM 43.2761 -117.2161 36° Northeast 465 535 40,000  Level Salt Lake Center
02:07PM 43.3789 -117.1172 35° Northeast 470 541 40,000  Level Salt Lake Center
02:08PM 43.5028 -117.0122 32° Northeast 467 537 40,000  Level Salt Lake Center
02:09PM 43.6039 -116.9108 36° Northeast 469 540 40,000  Level Salt Lake Center
02:10PM 43.7236 -116.7950 35° Northeast 470 541 40,000  Level Salt Lake Center
02:11PM 43.8267 -116.6919 36° Northeast 476 548 40,000  Level Salt Lake Center
02:12PM 43.9458 -116.5717 36° Northeast 475 547 40,000  Level Salt Lake Center
02:13PM 44.0472 -116.4703 36° Northeast 470 541 40,000  Level Salt Lake Center
02:14PM 44.1494 -116.3669 36° Northeast 474 545 40,000  Level Salt Lake Center
02:15PM 44.2672 -116.2461 36° Northeast 471 542 40,000  Level Salt Lake Center
02:16PM 44.3681 -116.1433 36° Northeast 473 544 40,000  Level Salt Lake Center
02:17PM 44.4794 -116.0297 36° Northeast 468 539 40,000  Level Salt Lake Center
02:18PM 44.5961 -115.9083 37° Northeast 469 540 40,000  Level Salt Lake Center
02:19PM 44.6969 -115.8044 36° Northeast 469 540 40,000  Level Salt Lake Center
02:20PM 44.8147 -115.6828 36° Northeast 471 542 40,000  Level Salt Lake Center
02:21PM 44.9153 -115.5772 37° Northeast 471 542 40,000  Level Salt Lake Center
02:22PM 45.0153 -115.4722 37° Northeast 469 540 40,000 -60 Level Salt Lake Center
02:23PM 45.1328 -115.3447 37° Northeast 474 545 39,900 -720 Descending Salt Lake Center
02:24PM 45.2333 -115.2386 37° Northeast 472 543 38,600 -1,560 Descending Salt Lake Center
02:26PM 45.3483 -115.1153 37° Northeast 462 532 36,800 -1,860 Descending Salt Lake Center
02:27PM 45.4633 -114.9922 37° Northeast 463 533 34,400 -2,220 Descending Salt Lake Center
02:28PM 45.5767 -114.8689 37° Northeast 460 529 31,900 -2,700 Descending Salt Lake Center
02:29PM 45.6719 -114.7656 37° Northeast 451 519 28,900 -3,240 Descending Salt Lake Center
02:30PM 45.7875 -114.6672 31° Northeast 433 498 25,300 -3,300 Descending Salt Lake Center
02:31PM 45.8842 -114.5989 26° Northeast 414 476 22,200 -3,300 Descending Salt Lake Center
02:32PM 45.9925 -114.5161 28° Northeast 399 459 18,600 -3,000 Descending Salt Lake Center
02:33PM 46.0733 -114.4508 29° Northeast 391 450 16,000 -2,580 Descending Salt Lake Center
02:34PM 46.1581 -114.3836 29° Northeast 373 429 13,400 -1,500 Descending Salt Lake Center
02:35PM 46.2517 -114.3144 27° Northeast 342 394 13,000 -480 Descending Salt Lake Center
02:36PM 46.3275 -114.2603 26° Northeast 324 373 12,500 -540 Descending Salt Lake Center
02:37PM 46.4025 -114.2056 27° Northeast 310 357 12,000 -300 Descending Salt Lake Center
02:38PM 46.4867 -114.1422 27° Northeast 314 361 12,000  Level Salt Lake Center
02:39PM 46.5633 -114.0817 28° Northeast 315 362 12,000  Level Salt Lake Center
02:40PM 46.6375 -114.0239 28° Northeast 287 330 12,000  Level Salt Lake Center
02:41PM 46.7067 -113.9753 26° Northeast 278 320 12,000  Level Salt Lake Center
02:42PM 46.7764 -113.9686 North 273 314 12,000  Level Salt Lake Center
02:43PM 46.7528 -114.0528 248° West 261 300 12,000  Level Salt Lake Center
02:44PM 46.6819 -114.0225 164° South 266 306 12,000 -120 Level Salt Lake Center
02:45PM 46.6194 -114.0269 183° South 238 274 11,800 -720 Descending Salt Lake Center
02:46PM 46.5608 -114.0597 201° Southwest 212 244 10,600 -1,080 Descending Salt Lake Center
02:47PM 46.5108 -114.0875 201° Southwest 195 224 9,600 -1,080 Descending Salt Lake Center
02:48PM 46.4500 -114.1078 193° South 211 243 8,400 -1,140 Descending Salt Lake Center
02:49PM 46.3958 -114.1164 186° South 199 229 7,300 -1,080 Descending Salt Lake Center